Time;durP1;ratioP1;P1;durP2;ratioP2;P2;SDS_P1;SDS_P2;PMS_P1;PMS_P2;Temp;Humidity;BMP_temperature;BMP_pressure;BME280_temperature;BME280_humidity;BME280_pressure;Samples;Min_cycle;Max_cycle;Signal;HPM_P1;HPM_P2
2022/03/21 00:00:27;;;;;;;14.32;6.90;;;;;;;;;;6215765;28;20050;-72
2022/03/21 00:03:41;;;;;;;16.23;8.07;;;;;;;;;;6215179;28;20056;-76
2022/03/21 00:06:46;;;;;;;14.77;7.70;;;;;;;;;;6232064;28;20507;-73
2022/03/21 00:09:49;;;;;;;14.23;6.68;;;;;;;;;;6218050;28;20420;-74
2022/03/21 00:12:52;;;;;;;15.43;7.40;;;;;;;;;;6215841;28;20038;-74
2022/03/21 00:15:57;;;;;;;15.13;7.03;;;;;;;;;;6218226;28;20046;-74
2022/03/21 00:19:02;;;;;;;16.92;6.97;;;;;;;;;;6219922;28;20399;-75
2022/03/21 00:22:05;;;;;;;15.35;7.75;;;;;;;;;;6219729;28;20068;-75
2022/03/21 00:25:08;;;;;;;15.35;6.53;;;;;;;;;;6219017;28;20048;-75
2022/03/21 00:28:14;;;;;;;16.35;7.20;;;;;;;;;;6219007;28;20073;-75
2022/03/21 00:31:18;;;;;;;13.50;6.95;;;;;;;;;;6235049;28;20440;-75
2022/03/21 00:34:23;;;;;;;12.90;6.55;;;;;;;;;;6235777;28;20050;-75
2022/03/21 00:37:26;;;;;;;13.70;6.63;;;;;;;;;;6221471;28;20049;-75
2022/03/21 00:40:30;;;;;;;15.93;7.28;;;;;;;;;;6220015;28;20058;-75
2022/03/21 00:43:34;;;;;;;15.88;6.88;;;;;;;;;;6220795;28;20744;-75
2022/03/21 00:46:38;;;;;;;13.90;6.45;;;;;;;;;;6222013;28;20042;-75
2022/03/21 00:49:41;;;;;;;15.45;6.50;;;;;;;;;;6221473;28;20504;-76
2022/03/21 00:52:45;;;;;;;13.57;6.45;;;;;;;;;;6222436;28;20049;-75
2022/03/21 00:55:49;;;;;;;15.40;6.57;;;;;;;;;;6221761;28;20184;-76
2022/03/21 00:58:52;;;;;;;12.85;6.57;;;;;;;;;;6220830;28;20065;-75
2022/03/21 01:01:56;;;;;;;12.30;6.55;;;;;;;;;;6221776;28;20424;-76
2022/03/21 01:05:00;;;;;;;16.08;7.55;;;;;;;;;;6221377;28;20049;-75
2022/03/21 01:08:03;;;;;;;13.45;6.82;;;;;;;;;;6220904;28;20046;-75
2022/03/21 01:11:09;;;;;;;13.73;6.57;;;;;;;;;;6219665;28;20049;-75
2022/03/21 01:14:12;;;;;;;14.35;6.80;;;;;;;;;;6221569;28;20046;-74
2022/03/21 01:17:19;;;;;;;13.07;6.40;;;;;;;;;;6221255;28;20042;-75
2022/03/21 01:20:22;;;;;;;16.48;6.88;;;;;;;;;;6220525;28;20538;-76
2022/03/21 01:23:25;;;;;;;15.50;6.72;;;;;;;;;;6221620;28;20054;-75
2022/03/21 01:26:28;;;;;;;16.20;6.53;;;;;;;;;;6220724;28;20056;-75
2022/03/21 01:29:31;;;;;;;14.45;6.15;;;;;;;;;;6220483;28;20045;-75
2022/03/21 01:32:36;;;;;;;15.02;6.43;;;;;;;;;;6221117;28;20057;-75
2022/03/21 01:35:39;;;;;;;13.82;6.35;;;;;;;;;;6221367;28;20124;-74
2022/03/21 01:38:42;;;;;;;10.95;5.82;;;;;;;;;;6220307;28;20559;-75
2022/03/21 01:41:45;;;;;;;14.27;5.45;;;;;;;;;;6235283;28;20069;-75
2022/03/21 01:44:50;;;;;;;13.65;6.30;;;;;;;;;;6220829;28;20053;-75
2022/03/21 01:47:55;;;;;;;13.02;6.03;;;;;;;;;;6220143;28;20430;-75
2022/03/21 01:50:58;;;;;;;14.50;6.35;;;;;;;;;;6219633;28;20084;-75
2022/03/21 01:57:22;;;;;;;13.73;6.47;;;;;;;;;;6220427;28;20046;-74
2022/03/21 02:00:25;;;;;;;12.60;6.10;;;;;;;;;;6219772;28;20054;-75
2022/03/21 02:03:29;;;;;;;15.77;6.82;;;;;;;;;;6219240;28;20503;-75
2022/03/21 02:06:35;;;;;;;12.52;6.07;;;;;;;;;;6220430;28;20050;-76
2022/03/21 02:09:38;;;;;;;12.35;6.30;;;;;;;;;;6220239;28;20535;-75
2022/03/21 02:12:41;;;;;;;12.43;6.70;;;;;;;;;;6234710;28;20404;-75
2022/03/21 02:15:44;;;;;;;12.77;5.95;;;;;;;;;;6219867;28;20048;-75
2022/03/21 02:18:49;;;;;;;12.85;6.15;;;;;;;;;;6235081;28;20049;-76
2022/03/21 02:22:07;;;;;;;12.73;5.97;;;;;;;;;;6219216;28;20054;-74
2022/03/21 02:25:19;;;;;;;13.18;6.00;;;;;;;;;;6219095;28;20049;-73
2022/03/21 02:28:22;;;;;;;11.98;6.13;;;;;;;;;;6219831;28;20045;-74
2022/03/21 02:31:28;;;;;;;16.00;6.93;;;;;;;;;;6219431;28;20088;-73
2022/03/21 02:34:34;;;;;;;12.20;6.15;;;;;;;;;;6218818;28;20037;-74
2022/03/21 02:37:40;;;;;;;13.13;6.20;;;;;;;;;;6218390;28;20045;-74
2022/03/21 02:40:45;;;;;;;15.20;6.60;;;;;;;;;;6234543;28;20062;-73
2022/03/21 02:43:54;;;;;;;16.25;6.10;;;;;;;;;;6218853;28;20088;-74
2022/03/21 02:46:57;;;;;;;12.40;5.82;;;;;;;;;;6218340;28;20552;-74
2022/03/21 02:50:01;;;;;;;11.25;5.60;;;;;;;;;;6219329;28;20042;-74
2022/03/21 02:53:07;;;;;;;16.48;6.07;;;;;;;;;;6219066;28;20239;-74
2022/03/21 02:56:12;;;;;;;12.20;6.07;;;;;;;;;;6218476;28;20045;-74
2022/03/21 02:59:16;;;;;;;11.25;5.50;;;;;;;;;;6218661;28;20041;-73
2022/03/21 03:02:21;;;;;;;10.15;5.38;;;;;;;;;;6234156;28;20041;-74
2022/03/21 03:05:24;;;;;;;12.63;5.93;;;;;;;;;;6233256;28;20168;-73
2022/03/21 03:08:27;;;;;;;12.05;5.75;;;;;;;;;;6233225;28;20057;-74
2022/03/21 03:11:36;;;;;;;10.98;5.60;;;;;;;;;;6219416;28;20129;-74
2022/03/21 03:14:39;;;;;;;12.00;5.60;;;;;;;;;;6218774;28;20392;-74
2022/03/21 03:17:42;;;;;;;10.38;4.78;;;;;;;;;;6233012;28;20073;-74
2022/03/21 03:20:48;;;;;;;12.52;5.53;;;;;;;;;;6233387;28;20053;-74
2022/03/21 03:23:51;;;;;;;;;;;;;;;;;;6219205;28;20049;-74
2022/03/21 03:26:56;;;;;;;11.57;6.00;;;;;;;;;;6218041;28;20400;-73
2022/03/21 03:29:59;;;;;;;14.18;6.22;;;;;;;;;;6217426;28;20052;-74
2022/03/21 03:33:02;;;;;;;10.95;5.68;;;;;;;;;;6218670;28;20412;-74
2022/03/21 03:36:05;;;;;;;9.75;5.07;;;;;;;;;;6216608;28;20408;-74
2022/03/21 03:39:08;;;;;;;13.55;6.45;;;;;;;;;;6217579;28;20050;-73
2022/03/21 03:42:12;;;;;;;12.32;5.20;;;;;;;;;;6218203;28;20041;-75
2022/03/21 03:45:15;;;;;;;10.70;5.78;;;;;;;;;;6233143;28;20484;-74
2022/03/21 03:48:18;;;;;;;16.10;6.07;;;;;;;;;;6232733;28;20343;-74
2022/03/21 03:51:23;;;;;;;11.02;5.60;;;;;;;;;;6217249;28;20124;-74
2022/03/21 03:54:29;;;;;;;9.88;5.38;;;;;;;;;;6218154;28;20465;-74
2022/03/21 03:57:33;;;;;;;10.25;5.63;;;;;;;;;;6217754;28;20050;-74
2022/03/21 04:00:36;;;;;;;12.25;6.03;;;;;;;;;;6217007;28;20046;-74
2022/03/21 04:03:48;;;;;;;16.58;6.22;;;;;;;;;;6217912;28;20096;-75
2022/03/21 04:06:53;;;;;;;11.15;4.95;;;;;;;;;;6232843;28;20056;-74
2022/03/21 04:09:56;;;;;;;13.00;5.50;;;;;;;;;;6217343;28;20405;-74
2022/03/21 04:13:00;;;;;;;11.77;5.32;;;;;;;;;;6232288;28;20061;-74
2022/03/21 04:16:03;;;;;;;11.27;5.68;;;;;;;;;;6218167;28;20046;-73
2022/03/21 04:19:08;;;;;;;12.80;5.53;;;;;;;;;;6217357;28;20101;-74
2022/03/21 04:22:11;;;;;;;13.18;5.93;;;;;;;;;;6216994;28;20044;-73
2022/03/21 04:25:17;;;;;;;10.73;6.03;;;;;;;;;;6232826;28;20173;-74
2022/03/21 04:28:21;;;;;;;12.13;5.75;;;;;;;;;;6232795;28;20057;-74
2022/03/21 04:31:24;;;;;;;11.10;5.50;;;;;;;;;;6216910;28;20500;-74
2022/03/21 04:34:32;;;;;;;11.57;5.80;;;;;;;;;;6231726;28;20050;-74
2022/03/21 04:37:35;;;;;;;12.57;5.80;;;;;;;;;;6232672;28;20172;-74
2022/03/21 04:40:41;;;;;;;11.87;5.43;;;;;;;;;;6216805;28;20054;-74
2022/03/21 04:43:46;;;;;;;12.48;6.28;;;;;;;;;;6231353;28;20507;-73
2022/03/21 04:46:52;;;;;;;12.88;5.72;;;;;;;;;;6232906;28;20046;-74
2022/03/21 04:49:55;;;;;;;12.50;6.65;;;;;;;;;;6232750;28;20159;-73
2022/03/21 04:52:58;;;;;;;10.90;5.60;;;;;;;;;;6216632;28;20045;-73
2022/03/21 04:56:01;;;;;;;11.10;5.82;;;;;;;;;;6216791;28;20180;-74
2022/03/21 04:59:07;;;;;;;13.88;5.68;;;;;;;;;;6217727;28;20054;-72
2022/03/21 05:02:10;;;;;;;;;;;;;;;;;;6221928;28;20207;-73
2022/03/21 05:05:14;;;;;;;13.93;5.85;;;;;;;;;;6221022;28;20340;-73
2022/03/21 05:08:17;;;;;;;13.50;5.22;;;;;;;;;;6236854;28;20477;-73
2022/03/21 05:11:20;;;;;;;12.73;6.03;;;;;;;;;;6221513;28;20045;-73
2022/03/21 05:14:26;;;;;;;15.77;6.05;;;;;;;;;;6220641;28;20129;-74
2022/03/21 05:17:30;;;;;;;14.05;6.32;;;;;;;;;;6221149;28;20041;-75
2022/03/21 05:20:33;;;;;;;13.10;5.70;;;;;;;;;;6221168;28;20413;-74
2022/03/21 05:37:06;;;;;;;12.75;5.95;;;;;;;;;;6220421;28;20089;-73
2022/03/21 05:43:30;;;;;;;13.68;6.68;;;;;;;;;;6220352;28;20054;-74
2022/03/21 05:46:34;;;;;;;15.98;6.90;;;;;;;;;;6220582;28;20077;-73
2022/03/21 05:49:37;;;;;;;16.90;7.15;;;;;;;;;;6220268;28;20050;-75
2022/03/21 05:52:40;;;;;;;22.27;7.57;;;;;;;;;;6219858;28;20124;-74
2022/03/21 05:55:45;;;;;;;13.15;6.80;;;;;;;;;;6220485;28;20042;-76
2022/03/21 05:58:51;;;;;;;28.02;7.53;;;;;;;;;;6219810;28;20485;-76
2022/03/21 06:01:55;;;;;;;18.38;7.32;;;;;;;;;;6217856;28;20046;-75
2022/03/21 06:05:01;;;;;;;16.05;6.90;;;;;;;;;;6219800;28;20046;-75
2022/03/21 06:08:04;;;;;;;16.43;7.43;;;;;;;;;;6219604;28;20423;-75
2022/03/21 06:11:09;;;;;;;18.85;7.20;;;;;;;;;;6218443;28;20132;-75
2022/03/21 06:14:12;;;;;;;15.90;7.00;;;;;;;;;;6218428;28;20041;-75
2022/03/21 06:17:17;;;;;;;18.67;7.90;;;;;;;;;;6219598;28;20073;-74
2022/03/21 06:20:22;;;;;;;14.48;7.63;;;;;;;;;;6219181;28;20046;-74
2022/03/21 06:23:25;;;;;;;13.48;7.28;;;;;;;;;;6218730;28;20046;-74
2022/03/21 06:26:30;;;;;;;21.63;8.32;;;;;;;;;;6219693;28;20046;-74
2022/03/21 06:29:33;;;;;;;15.35;7.75;;;;;;;;;;6219132;28;20046;-74
2022/03/21 06:32:38;;;;;;;20.08;9.40;;;;;;;;;;6218582;28;20045;-75
2022/03/21 06:35:41;;;;;;;17.75;7.60;;;;;;;;;;6218871;28;20543;-75
2022/03/21 06:38:44;;;;;;;19.70;8.02;;;;;;;;;;6219419;28;20128;-75
2022/03/21 06:41:47;;;;;;;18.27;8.05;;;;;;;;;;6218731;28;20060;-75
2022/03/21 06:44:50;;;;;;;18.15;8.13;;;;;;;;;;6218249;28;20049;-74
2022/03/21 06:47:54;;;;;;;16.92;8.38;;;;;;;;;;6234479;28;20648;-75
2022/03/21 06:51:00;;;;;;;25.13;8.55;;;;;;;;;;6218499;28;20045;-75
2022/03/21 06:54:03;;;;;;;20.70;8.25;;;;;;;;;;6217765;28;20400;-75
2022/03/21 06:57:06;;;;;;;16.15;7.47;;;;;;;;;;6233403;28;20053;-74
2022/03/21 07:00:10;;;;;;;22.02;9.75;;;;;;;;;;6218627;28;20049;-75
2022/03/21 07:03:16;;;;;;;18.10;8.45;;;;;;;;;;6218576;28;20077;-75
2022/03/21 07:06:22;;;;;;;20.70;9.27;;;;;;;;;;6217640;28;20473;-74
2022/03/21 07:09:25;;;;;;;18.80;9.02;;;;;;;;;;6218886;28;20041;-74
2022/03/21 07:12:28;;;;;;;15.57;8.85;;;;;;;;;;6217115;28;20160;-74
2022/03/21 07:15:31;;;;;;;20.52;8.90;;;;;;;;;;6218024;28;20054;-73
2022/03/21 07:18:35;;;;;;;23.10;10.15;;;;;;;;;;6233939;28;20097;-74
2022/03/21 07:21:38;;;;;;;21.33;8.73;;;;;;;;;;6218463;28;20492;-74
2022/03/21 07:24:41;;;;;;;17.85;8.55;;;;;;;;;;6217734;28;20049;-74
2022/03/21 07:27:45;;;;;;;20.88;9.75;;;;;;;;;;6217027;28;20045;-75
2022/03/21 07:30:48;;;;;;;20.17;10.40;;;;;;;;;;6216222;28;20195;-74
2022/03/21 07:33:56;;;;;;;19.08;9.15;;;;;;;;;;6215244;28;20046;-74
2022/03/21 07:36:59;;;;;;;19.98;10.35;;;;;;;;;;6215890;28;20523;-74
2022/03/21 07:40:02;;;;;;;17.90;9.45;;;;;;;;;;6217089;28;20054;-75
2022/03/21 07:43:05;;;;;;;19.85;9.23;;;;;;;;;;6217197;28;20046;-76
2022/03/21 07:49:29;;;;;;;16.40;9.35;;;;;;;;;;6216670;28;20056;-75
2022/03/21 07:52:32;;;;;;;21.00;10.50;;;;;;;;;;6217966;28;20053;-76
2022/03/21 07:55:35;;;;;;;19.95;10.50;;;;;;;;;;6216958;28;20042;-76
2022/03/21 07:58:38;;;;;;;21.85;11.05;;;;;;;;;;6231392;28;20485;-75
2022/03/21 08:01:42;;;;;;;18.70;10.15;;;;;;;;;;6217871;28;20141;-75
2022/03/21 08:04:47;;;;;;;21.05;10.55;;;;;;;;;;6217077;28;20042;-75
2022/03/21 08:07:57;;;;;;;18.73;10.30;;;;;;;;;;6216400;28;20099;-77
2022/03/21 08:11:01;;;;;;;19.42;10.57;;;;;;;;;;6216598;28;20418;-75
2022/03/21 08:14:07;;;;;;;18.85;10.32;;;;;;;;;;6232908;28;20072;-75
2022/03/21 08:17:10;;;;;;;21.15;10.32;;;;;;;;;;6216882;28;20053;-77
2022/03/21 08:20:18;;;;;;;23.13;11.07;;;;;;;;;;6231629;28;20052;-77
2022/03/21 08:23:21;;;;;;;20.42;11.23;;;;;;;;;;6233273;28;20049;-75
2022/03/21 08:26:24;;;;;;;20.77;11.02;;;;;;;;;;6216909;28;20042;-75
2022/03/21 08:29:27;;;;;;;18.63;9.98;;;;;;;;;;6216231;28;20052;-74
2022/03/21 08:32:30;;;;;;;19.52;10.95;;;;;;;;;;6216365;28;20046;-76
2022/03/21 08:35:35;;;;;;;22.17;10.43;;;;;;;;;;6218570;28;20428;-75
2022/03/21 08:38:41;;;;;;;19.15;10.80;;;;;;;;;;6221658;28;20050;-75
2022/03/21 08:41:46;;;;;;;23.20;11.85;;;;;;;;;;6221595;28;20867;-77
2022/03/21 08:44:49;;;;;;;21.38;11.68;;;;;;;;;;6204647;28;20053;-76
2022/03/21 08:47:53;;;;;;;26.45;12.40;;;;;;;;;;6221595;28;20050;-75
2022/03/21 08:51:03;;;;;;;20.27;10.73;;;;;;;;;;6221497;28;20512;-74
2022/03/21 08:54:07;;;;;;;22.00;11.27;;;;;;;;;;6221388;28;20500;-75
2022/03/21 08:57:10;;;;;;;20.42;10.88;;;;;;;;;;6222241;28;20042;-75
2022/03/21 09:00:14;;;;;;;20.02;11.05;;;;;;;;;;6221536;28;20054;-74
2022/03/21 09:03:17;;;;;;;19.75;10.38;;;;;;;;;;6220615;28;20046;-75
2022/03/21 09:06:27;;;;;;;26.42;11.35;;;;;;;;;;6221752;28;20520;-74
2022/03/21 09:09:30;;;;;;;19.27;11.05;;;;;;;;;;6221556;28;20060;-75
2022/03/21 09:12:35;;;;;;;23.48;12.23;;;;;;;;;;6220793;28;20050;-75
2022/03/21 09:15:38;;;;;;;21.65;10.90;;;;;;;;;;6220891;28;20054;-77
2022/03/21 09:18:42;;;;;;;68.45;32.75;;;;;;;;;;6220965;28;20092;-76
2022/03/21 09:21:46;;;;;;;23.00;11.73;;;;;;;;;;6220549;28;20120;-74
2022/03/21 09:24:51;;;;;;;21.00;10.38;;;;;;;;;;6219968;28;20081;-75
2022/03/21 09:27:54;;;;;;;21.60;11.13;;;;;;;;;;6219207;28;20054;-76
2022/03/21 09:30:57;;;;;;;21.80;10.32;;;;;;;;;;6220321;28;20125;-76
2022/03/21 09:34:00;;;;;;;18.80;9.98;;;;;;;;;;6219752;28;20049;-75
2022/03/21 09:37:07;;;;;;;18.27;10.68;;;;;;;;;;6220788;28;20050;-76
2022/03/21 09:40:13;;;;;;;21.23;10.65;;;;;;;;;;6220543;28;20141;-75
2022/03/21 09:43:16;;;;;;;23.58;11.40;;;;;;;;;;6220385;28;20108;-74
2022/03/21 09:46:20;;;;;;;22.17;11.88;;;;;;;;;;6219914;28;20137;-75
2022/03/21 09:49:27;;;;;;;19.77;11.50;;;;;;;;;;6220808;28;20053;-77
2022/03/21 09:52:31;;;;;;;22.13;11.18;;;;;;;;;;6219007;28;20049;-73
2022/03/21 09:55:36;;;;;;;23.98;10.52;;;;;;;;;;6220050;28;20046;-73
2022/03/21 09:58:39;;;;;;;16.80;10.07;;;;;;;;;;6219500;28;20104;-74
2022/03/21 10:01:44;;;;;;;20.20;10.55;;;;;;;;;;6220425;28;20058;-74
2022/03/21 10:04:48;;;;;;;18.13;10.18;;;;;;;;;;6219436;28;20045;-74
2022/03/21 10:08:04;;;;;;;35.55;19.25;;;;;;;;;;6219445;28;20048;-76
2022/03/21 10:11:07;;;;;;;19.52;10.93;;;;;;;;;;6220190;28;20129;-73
2022/03/21 10:14:23;;;;;;;19.35;10.93;;;;;;;;;;6219746;28;20049;-72
2022/03/21 10:17:29;;;;;;;19.65;10.55;;;;;;;;;;6219111;28;20473;-71
2022/03/21 10:20:35;;;;;;;;;;;;;;;;;;6219933;28;20045;-73
2022/03/21 10:23:39;;;;;;;18.75;10.73;;;;;;;;;;6219490;28;20034;-72
2022/03/21 10:26:45;;;;;;;19.73;10.73;;;;;;;;;;6217952;28;20049;-74
2022/03/21 10:29:54;;;;;;;19.27;11.05;;;;;;;;;;6218452;28;20508;-72
2022/03/21 10:32:58;;;;;;;17.67;10.43;;;;;;;;;;6219537;28;20049;-74
2022/03/21 10:36:04;;;;;;;19.38;11.18;;;;;;;;;;6219106;28;20091;-75
2022/03/21 10:39:12;;;;;;;20.35;11.18;;;;;;;;;;6217117;28;20414;-74
2022/03/21 10:42:21;;;;;;;21.48;11.50;;;;;;;;;;6218752;28;20053;-73
2022/03/21 10:45:25;;;;;;;17.50;10.80;;;;;;;;;;6234122;28;20079;-73
2022/03/21 10:48:29;;;;;;;19.58;11.52;;;;;;;;;;6218684;28;20046;-73
2022/03/21 10:51:48;;;;;;;19.23;11.75;;;;;;;;;;6217847;28;20049;-70
2022/03/21 10:54:55;;;;;;;16.63;10.10;;;;;;;;;;6217681;28;20076;-73
2022/03/21 10:58:00;;;;;;;17.00;10.25;;;;;;;;;;6216699;28;20042;-73
2022/03/21 11:01:12;;;;;;;17.65;9.27;;;;;;;;;;6218440;28;20145;-73
2022/03/21 11:04:15;;;;;;;17.90;9.10;;;;;;;;;;6217977;28;20599;-73
2022/03/21 11:07:18;;;;;;;17.23;9.07;;;;;;;;;;6233580;28;20045;-72
2022/03/21 11:10:24;;;;;;;16.08;9.43;;;;;;;;;;6232824;28;20049;-71
2022/03/21 11:13:27;;;;;;;18.58;9.75;;;;;;;;;;6218189;28;20183;-72
2022/03/21 11:16:30;;;;;;;25.02;16.27;;;;;;;;;;6218325;28;20424;-70
2022/03/21 11:19:34;;;;;;;22.60;13.85;;;;;;;;;;6218017;28;20046;-72
2022/03/21 11:22:38;;;;;;;20.15;10.05;;;;;;;;;;6216019;28;20046;-72
2022/03/21 11:25:50;;;;;;;19.38;10.30;;;;;;;;;;6232959;28;20050;-71
2022/03/21 11:29:08;;;;;;;17.73;10.20;;;;;;;;;;6218267;28;20050;-72
2022/03/21 11:32:20;;;;;;;14.57;9.52;;;;;;;;;;6217740;28;20488;-73
2022/03/21 11:35:25;;;;;;;17.48;10.23;;;;;;;;;;6217434;28;20054;-73
2022/03/21 11:38:29;;;;;;;17.50;10.45;;;;;;;;;;6231753;28;20086;-72
2022/03/21 11:41:34;;;;;;;16.50;10.67;;;;;;;;;;6232610;28;20064;-73
2022/03/21 11:44:37;;;;;;;18.00;10.60;;;;;;;;;;6216189;28;20121;-74
2022/03/21 11:47:40;;;;;;;16.30;10.85;;;;;;;;;;6213843;28;20088;-73
2022/03/21 11:50:42;;;;;;;18.02;11.07;;;;;;;;;;6217458;28;20045;-73
2022/03/21 11:53:46;;;;;;;18.58;10.38;;;;;;;;;;6216284;28;20053;-73
2022/03/21 11:56:58;;;;;;;16.95;9.82;;;;;;;;;;6213654;28;20801;-72
2022/03/21 12:00:14;;;;;;;15.77;9.95;;;;;;;;;;6213349;28;20053;-72
2022/03/21 12:03:25;;;;;;;18.98;10.18;;;;;;;;;;6213093;28;20041;-73
2022/03/21 12:06:30;;;;;;;17.23;9.50;;;;;;;;;;6212870;28;20049;-73
2022/03/21 12:09:39;;;;;;;15.88;9.63;;;;;;;;;;6211798;28;20050;-72
2022/03/21 12:12:56;;;;;;;16.42;10.18;;;;;;;;;;6218241;28;20050;-71
2022/03/21 12:16:00;;;;;;;18.00;9.93;;;;;;;;;;6219882;28;20052;-71
2022/03/21 12:19:06;;;;;;;13.48;9.45;;;;;;;;;;6219184;28;20046;-70
2022/03/21 12:22:29;;;;;;;16.75;8.88;;;;;;;;;;6220425;28;20042;-73
2022/03/21 12:25:43;;;;;;;18.73;8.57;;;;;;;;;;6237941;28;20045;-70
2022/03/21 12:32:30;;;;;;;14.70;8.30;;;;;;;;;;6221889;28;20050;-73
2022/03/21 12:35:52;;;;;;;13.57;8.38;;;;;;;;;;6221043;28;20049;-71
2022/03/21 12:38:55;;;;;;;14.15;7.97;;;;;;;;;;6222321;28;20061;-73
2022/03/21 12:41:59;;;;;;;13.77;7.80;;;;;;;;;;6222284;28;20060;-72
2022/03/21 12:45:07;;;;;;;13.82;7.70;;;;;;;;;;6220814;28;20049;-74
2022/03/21 12:48:14;;;;;;;12.10;7.97;;;;;;;;;;6219799;28;20057;-73
2022/03/21 12:51:17;;;;;;;;;;;;;;;;;;6222845;28;20046;-73
2022/03/21 12:54:32;;;;;;;14.30;8.07;;;;;;;;;;6220607;28;19987;-75
2022/03/21 12:57:52;;;;;;;15.52;7.88;;;;;;;;;;6220838;28;20449;-75
2022/03/21 13:01:00;;;;;;;14.75;8.88;;;;;;;;;;6221284;28;20048;-75
2022/03/21 13:11:05;;;;;;;13.55;8.35;;;;;;;;;;6169058;28;20106;-74
2022/03/21 13:14:13;;;;;;;14.68;8.05;;;;;;;;;;6169353;28;20132;-74
2022/03/21 13:17:18;;;;;;;15.93;9.35;;;;;;;;;;6221396;28;20058;-74
2022/03/21 13:20:27;;;;;;;17.08;9.30;;;;;;;;;;6236199;28;20056;-74
2022/03/21 13:23:30;;;;;;;15.98;9.45;;;;;;;;;;6219160;28;20046;-73
2022/03/21 13:26:35;;;;;;;15.82;9.10;;;;;;;;;;6236119;28;20485;-72
2022/03/21 13:29:43;;;;;;;19.60;9.15;;;;;;;;;;6220902;28;20050;-74
2022/03/21 13:32:47;;;;;;;14.15;8.77;;;;;;;;;;6220506;28;20056;-74
2022/03/21 13:35:54;;;;;;;14.07;8.32;;;;;;;;;;6235060;28;20108;-74
2022/03/21 13:39:11;;;;;;;17.25;7.75;;;;;;;;;;6220987;28;20556;-74
2022/03/21 13:42:21;;;;;;;13.68;8.40;;;;;;;;;;6220342;28;20046;-77
2022/03/21 13:45:27;;;;;;;13.50;8.07;;;;;;;;;;6220319;28;20129;-77
2022/03/21 13:48:35;;;;;;;13.60;7.53;;;;;;;;;;6235528;28;20141;-71
2022/03/21 13:51:43;;;;;;;12.90;7.78;;;;;;;;;;6220512;28;20046;-74
2022/03/21 13:54:52;;;;;;;13.07;8.43;;;;;;;;;;6220899;28;20049;-74
2022/03/21 13:57:57;;;;;;;14.95;7.82;;;;;;;;;;6219351;28;20058;-74
2022/03/21 14:01:00;;;;;;;14.07;8.00;;;;;;;;;;6220506;28;20871;-73
2022/03/21 14:04:17;;;;;;;13.10;8.00;;;;;;;;;;6220466;28;20042;-74
2022/03/21 14:07:34;;;;;;;13.52;7.70;;;;;;;;;;6234605;28;20049;-74
2022/03/21 14:10:38;;;;;;;11.07;7.30;;;;;;;;;;6218956;28;20060;-75
2022/03/21 14:13:42;;;;;;;13.48;7.57;;;;;;;;;;6235464;28;20046;-75
2022/03/21 14:16:47;;;;;;;13.18;7.70;;;;;;;;;;6234627;28;20042;-74
2022/03/21 14:19:52;;;;;;;11.98;7.43;;;;;;;;;;6218914;28;20412;-74
2022/03/21 14:22:58;;;;;;;14.65;8.02;;;;;;;;;;6219562;28;20050;-74
2022/03/21 14:29:24;;;;;;;13.05;7.50;;;;;;;;;;6217695;28;20121;-75
2022/03/21 14:32:27;;;;;;;13.77;8.23;;;;;;;;;;6217569;28;20050;-74
2022/03/21 14:35:32;;;;;;;12.77;7.90;;;;;;;;;;6219222;28;20511;-74
2022/03/21 14:38:35;;;;;;;11.20;7.32;;;;;;;;;;6218627;28;20049;-74
2022/03/21 14:41:45;;;;;;;13.70;7.40;;;;;;;;;;6217103;28;20417;-74
2022/03/21 14:44:51;;;;;;;15.82;7.35;;;;;;;;;;6218933;28;20081;-75
2022/03/21 14:47:56;;;;;;;13.20;7.78;;;;;;;;;;6219270;28;20434;-76
2022/03/21 14:51:02;;;;;;;13.02;8.25;;;;;;;;;;6218475;28;20042;-74
2022/03/21 14:54:07;;;;;;;12.25;7.85;;;;;;;;;;6217876;28;20046;-73
2022/03/21 14:57:10;;;;;;;12.15;7.68;;;;;;;;;;6219063;28;20355;-73
2022/03/21 15:00:15;;;;;;;12.38;7.78;;;;;;;;;;6233878;28;20171;-73
2022/03/21 15:03:20;;;;;;;14.18;7.88;;;;;;;;;;6216513;28;20053;-75
2022/03/21 15:06:25;;;;;;;16.70;8.07;;;;;;;;;;6233446;28;20408;-75
2022/03/21 15:09:28;;;;;;;14.27;8.15;;;;;;;;;;6219275;28;20046;-74
2022/03/21 15:12:31;;;;;;;13.02;6.97;;;;;;;;;;6218039;28;20071;-74
2022/03/21 15:15:34;;;;;;;14.00;6.97;;;;;;;;;;6217649;28;20060;-74
2022/03/21 15:18:40;;;;;;;12.27;7.32;;;;;;;;;;6218532;28;20129;-74
2022/03/21 15:21:47;;;;;;;13.50;6.50;;;;;;;;;;6233274;28;20049;-74
2022/03/21 15:24:53;;;;;;;11.10;6.47;;;;;;;;;;6217397;28;20045;-76
2022/03/21 15:27:56;;;;;;;9.50;6.40;;;;;;;;;;6218329;28;20057;-74
2022/03/21 15:31:02;;;;;;;14.60;6.63;;;;;;;;;;6218359;28;20061;-74
2022/03/21 15:34:08;;;;;;;11.32;7.07;;;;;;;;;;6217871;28;20077;-74
2022/03/21 15:43:57;;;;;;;11.07;7.35;;;;;;;;;;6217547;28;20046;-74
2022/03/21 15:47:02;;;;;;;11.13;6.82;;;;;;;;;;6217612;28;20108;-75
2022/03/21 15:50:06;;;;;;;13.50;6.95;;;;;;;;;;6215730;28;20049;-74
2022/03/21 15:53:11;;;;;;;23.42;9.80;;;;;;;;;;6217893;28;20129;-74
2022/03/21 15:56:18;;;;;;;17.77;8.18;;;;;;;;;;6218157;28;20054;-74
2022/03/21 15:59:21;;;;;;;14.48;7.88;;;;;;;;;;6217366;28;20100;-74
2022/03/21 16:02:24;;;;;;;11.38;7.07;;;;;;;;;;6217532;28;20286;-72
2022/03/21 16:05:33;;;;;;;12.88;6.97;;;;;;;;;;6232468;28;20514;-73
2022/03/21 16:08:36;;;;;;;;;;;;;;;;;;6217383;28;20073;-74
2022/03/21 16:11:43;;;;;;;15.43;8.68;;;;;;;;;;6216875;28;20372;-76
2022/03/21 16:14:49;;;;;;;16.70;7.25;;;;;;;;;;6217667;28;20050;-73
2022/03/21 16:17:52;;;;;;;14.68;7.88;;;;;;;;;;6217429;28;20510;-74
2022/03/21 16:20:56;;;;;;;15.25;8.43;;;;;;;;;;6216619;28;20054;-75
2022/03/21 16:24:01;;;;;;;14.80;7.40;;;;;;;;;;6217535;28;20449;-75
2022/03/21 16:27:06;;;;;;;;;;;;;;;;;;6216584;28;20116;-75
2022/03/21 16:30:12;;;;;;;12.90;6.88;;;;;;;;;;6215411;28;20450;-75
2022/03/21 16:33:15;;;;;;;;;;;;;;;;;;6215600;28;20074;-71
2022/03/21 16:36:18;;;;;;;10.85;6.38;;;;;;;;;;6217350;28;19922;-75
2022/03/21 16:39:21;;;;;;;13.50;6.90;;;;;;;;;;6231589;28;20045;-75
2022/03/21 16:42:26;;;;;;;15.50;6.47;;;;;;;;;;6216350;28;20409;-76
2022/03/21 16:45:30;;;;;;;11.52;6.38;;;;;;;;;;6217472;28;20105;-74
2022/03/21 16:48:34;;;;;;;17.90;6.47;;;;;;;;;;6232157;28;20073;-75
2022/03/21 16:51:37;;;;;;;14.23;6.68;;;;;;;;;;6216445;28;20049;-75
2022/03/21 16:54:41;;;;;;;14.27;7.20;;;;;;;;;;6216900;28;20118;-73
2022/03/21 16:57:44;;;;;;;16.05;6.28;;;;;;;;;;6220756;28;20139;-73
2022/03/21 17:00:48;;;;;;;16.10;7.10;;;;;;;;;;6221169;28;20061;-73
2022/03/21 17:03:58;;;;;;;19.08;10.30;;;;;;;;;;6220768;28;20099;-74
2022/03/21 17:07:06;;;;;;;13.63;6.88;;;;;;;;;;6221953;28;20081;-75
2022/03/21 17:10:12;;;;;;;15.85;6.63;;;;;;;;;;6220603;28;20049;-75
2022/03/21 17:13:16;;;;;;;14.50;6.65;;;;;;;;;;6235360;28;20091;-73
2022/03/21 17:16:20;;;;;;;13.10;7.45;;;;;;;;;;6220519;28;20157;-72
2022/03/21 17:23:07;;;;;;;13.63;6.68;;;;;;;;;;6220816;28;20050;-74
2022/03/21 17:26:11;;;;;;;11.15;6.82;;;;;;;;;;6220006;28;20050;-73
2022/03/21 17:29:14;;;;;;;18.80;6.72;;;;;;;;;;6203390;28;20127;-74
2022/03/21 17:32:20;;;;;;;16.70;7.28;;;;;;;;;;6220973;28;20396;-74
2022/03/21 17:35:32;;;;;;;14.18;6.82;;;;;;;;;;6220024;28;20543;-76
2022/03/21 17:38:36;;;;;;;20.48;6.80;;;;;;;;;;6219837;28;20046;-76
2022/03/21 17:41:40;;;;;;;14.18;6.90;;;;;;;;;;6220721;28;20108;-75
2022/03/21 17:44:43;;;;;;;13.20;7.18;;;;;;;;;;6218330;28;20054;-72
2022/03/21 17:47:48;;;;;;;13.63;6.63;;;;;;;;;;6219226;28;20042;-71
2022/03/21 17:50:52;;;;;;;;;;;;;;;;;;6220411;28;20229;-74
2022/03/21 17:53:58;;;;;;;12.38;6.55;;;;;;;;;;6198192;28;19994;-72
2022/03/21 17:57:01;;;;;;;11.30;6.50;;;;;;;;;;6216871;28;20125;-73
2022/03/21 18:00:07;;;;;;;20.33;6.68;;;;;;;;;;6216329;28;20600;-73
2022/03/21 18:03:16;;;;;;;13.23;7.10;;;;;;;;;;6218172;28;20049;-73
2022/03/21 18:06:19;;;;;;;15.67;7.50;;;;;;;;;;6217127;28;20049;-74
2022/03/21 18:09:25;;;;;;;17.60;7.80;;;;;;;;;;6216641;28;20068;-72
2022/03/21 18:12:28;;;;;;;14.82;7.60;;;;;;;;;;6217284;28;20839;-70
2022/03/21 18:15:32;;;;;;;16.55;7.53;;;;;;;;;;6217843;28;20113;-74
2022/03/21 18:18:41;;;;;;;18.45;7.90;;;;;;;;;;6217382;28;20057;-71
2022/03/21 18:21:45;;;;;;;16.20;6.90;;;;;;;;;;6218681;28;20099;-73
2022/03/21 18:24:56;;;;;;;18.08;8.20;;;;;;;;;;6220038;28;20290;-73
2022/03/21 18:27:59;;;;;;;18.50;7.72;;;;;;;;;;6219264;28;20429;-70
2022/03/21 18:31:05;;;;;;;14.85;8.48;;;;;;;;;;6201536;28;20046;-72
2022/03/21 18:34:10;;;;;;;14.60;7.88;;;;;;;;;;6219196;28;20566;-73
2022/03/21 18:37:13;;;;;;;18.00;8.52;;;;;;;;;;6219623;28;20077;-73
2022/03/21 18:40:17;;;;;;;16.52;8.27;;;;;;;;;;6218207;28;20057;-72
2022/03/21 18:43:21;;;;;;;17.92;8.20;;;;;;;;;;6219061;28;20060;-74
2022/03/21 18:46:25;;;;;;;22.55;8.02;;;;;;;;;;6202175;28;20488;-71
2022/03/21 18:49:32;;;;;;;21.33;8.35;;;;;;;;;;6201390;28;20400;-71
2022/03/21 18:52:36;;;;;;;20.23;8.87;;;;;;;;;;6218127;28;20053;-71
2022/03/21 18:55:41;;;;;;;;;;;;;;;;;;6219603;28;20484;-73
2022/03/21 18:58:45;;;;;;;18.58;9.45;;;;;;;;;;6218841;28;20543;-73
2022/03/21 19:01:48;;;;;;;17.23;9.10;;;;;;;;;;6200509;28;20076;-72